sensor_id;sensor_type;location;lat;lon;timestamp;pressure;altitude;pressure_sealevel;temperature;humidity
740;BME280;354;42.694;23.336;2023-02-01T00:01:53;95378.22;;;1.68;100.00
740;BME280;354;42.694;23.336;2023-02-01T00:04:19;95375.34;;;1.71;100.00
740;BME280;354;42.694;23.336;2023-02-01T00:06:44;95372.41;;;1.74;100.00
740;BME280;354;42.694;23.336;2023-02-01T00:09:10;95374.25;;;1.55;100.00
740;BME280;354;42.694;23.336;2023-02-01T00:11:35;95373.13;;;1.58;100.00
740;BME280;354;42.694;23.336;2023-02-01T00:14:00;95384.31;;;1.58;100.00
740;BME280;354;42.694;23.336;2023-02-01T00:16:28;95384.00;;;1.62;100.00
740;BME280;354;42.694;23.336;2023-02-01T00:19:14;95375.50;;;1.51;100.00
740;BME280;354;42.694;23.336;2023-02-01T00:21:40;95384.00;;;1.62;100.00
740;BME280;354;42.694;23.336;2023-02-01T00:24:06;95377.84;;;1.63;100.00
740;BME280;354;42.694;23.336;2023-02-01T00:26:42;95376.03;;;1.55;100.00
740;BME280;354;42.694;23.336;2023-02-01T00:29:14;95372.50;;;1.64;100.00
740;BME280;354;42.694;23.336;2023-02-01T00:31:41;95364.25;;;1.61;100.00
740;BME280;354;42.694;23.336;2023-02-01T00:34:07;95371.81;;;1.54;100.00
740;BME280;354;42.694;23.336;2023-02-01T00:36:34;95362.91;;;1.56;100.00
740;BME280;354;42.694;23.336;2023-02-01T00:38:59;95365.78;;;1.53;100.00
740;BME280;354;42.694;23.336;2023-02-01T00:41:25;95361.38;;;1.46;100.00
740;BME280;354;42.694;23.336;2023-02-01T00:43:50;95357.00;;;1.46;100.00
740;BME280;354;42.694;23.336;2023-02-01T00:46:18;95346.72;;;1.37;100.00
740;BME280;354;42.694;23.336;2023-02-01T00:48:44;95355.69;;;1.42;100.00
740;BME280;354;42.694;23.336;2023-02-01T00:51:12;95357.34;;;1.43;100.00
740;BME280;354;42.694;23.336;2023-02-01T00:53:38;95353.34;;;1.31;100.00
740;BME280;354;42.694;23.336;2023-02-01T00:56:04;95354.25;;;1.22;100.00
740;BME280;354;42.694;23.336;2023-02-01T00:58:31;95348.72;;;1.17;100.00
740;BME280;354;42.694;23.336;2023-02-01T01:01:07;95358.38;;;1.15;100.00
740;BME280;354;42.694;23.336;2023-02-01T01:03:36;95354.84;;;1.16;100.00
740;BME280;354;42.694;23.336;2023-02-01T01:06:05;95348.91;;;1.23;100.00
740;BME280;354;42.694;23.336;2023-02-01T01:08:31;95349.44;;;1.27;100.00
740;BME280;354;42.694;23.336;2023-02-01T01:10:57;95347.25;;;1.40;100.00
740;BME280;354;42.694;23.336;2023-02-01T01:13:23;95359.97;;;1.51;100.00
740;BME280;354;42.694;23.336;2023-02-01T01:15:48;95352.47;;;1.48;100.00
740;BME280;354;42.694;23.336;2023-02-01T01:18:14;95343.66;;;1.33;100.00
740;BME280;354;42.694;23.336;2023-02-01T01:20:40;95342.53;;;1.36;100.00
740;BME280;354;42.694;23.336;2023-02-01T01:23:07;95344.66;;;1.40;100.00
740;BME280;354;42.694;23.336;2023-02-01T01:25:37;95342.84;;;1.33;100.00
740;BME280;354;42.694;23.336;2023-02-01T01:28:02;95341.34;;;1.30;100.00
740;BME280;354;42.694;23.336;2023-02-01T01:30:28;95337.66;;;1.15;100.00
740;BME280;354;42.694;23.336;2023-02-01T01:32:53;95337.44;;;1.08;100.00
740;BME280;354;42.694;23.336;2023-02-01T01:35:19;95343.88;;;1.04;100.00
740;BME280;354;42.694;23.336;2023-02-01T01:37:44;95355.66;;;0.98;100.00
740;BME280;354;42.694;23.336;2023-02-01T01:40:10;95357.06;;;0.93;100.00
740;BME280;354;42.694;23.336;2023-02-01T01:42:40;95366.84;;;0.81;100.00
740;BME280;354;42.694;23.336;2023-02-01T01:48:07;95341.97;;;0.52;100.00
740;BME280;354;42.694;23.336;2023-02-01T01:50:39;95361.13;;;0.60;100.00
740;BME280;354;42.694;23.336;2023-02-01T01:53:07;95346.34;;;0.52;100.00
740;BME280;354;42.694;23.336;2023-02-01T01:55:36;95355.56;;;0.55;100.00
740;BME280;354;42.694;23.336;2023-02-01T01:58:06;95347.81;;;0.55;100.00
740;BME280;354;42.694;23.336;2023-02-01T02:00:33;95346.34;;;0.52;100.00
740;BME280;354;42.694;23.336;2023-02-01T02:03:05;95350.69;;;0.51;100.00
740;BME280;354;42.694;23.336;2023-02-01T02:05:34;95352.47;;;0.51;100.00
740;BME280;354;42.694;23.336;2023-02-01T02:08:00;95346.13;;;0.45;100.00
740;BME280;354;42.694;23.336;2023-02-01T02:10:28;95341.38;;;0.41;100.00
740;BME280;354;42.694;23.336;2023-02-01T02:13:14;95350.22;;;0.38;100.00
740;BME280;354;42.694;23.336;2023-02-01T02:15:55;95341.56;;;0.30;100.00
740;BME280;354;42.694;23.336;2023-02-01T02:18:33;95337.50;;;0.27;100.00
740;BME280;354;42.694;23.336;2023-02-01T02:32:35;95340.75;;;0.29;100.00
740;BME280;354;42.694;23.336;2023-02-01T02:38:05;95348.56;;;0.47;100.00
740;BME280;354;42.694;23.336;2023-02-01T02:40:47;95341.75;;;0.64;100.00
740;BME280;354;42.694;23.336;2023-02-01T02:43:22;95349.47;;;0.73;100.00
740;BME280;354;42.694;23.336;2023-02-01T02:46:12;95351.38;;;0.89;100.00
740;BME280;354;42.694;23.336;2023-02-01T02:49:25;95340.13;;;0.81;100.00
740;BME280;354;42.694;23.336;2023-02-01T02:54:52;95342.88;;;0.79;100.00
740;BME280;354;42.694;23.336;2023-02-01T02:57:37;95332.00;;;0.75;100.00
740;BME280;354;42.694;23.336;2023-02-01T03:00:28;95335.78;;;0.81;100.00
740;BME280;354;42.694;23.336;2023-02-01T03:03:13;95337.91;;;0.86;100.00
740;BME280;354;42.694;23.336;2023-02-01T03:05:57;95346.22;;;0.89;100.00
740;BME280;354;42.694;23.336;2023-02-01T03:08:24;95342.59;;;1.00;100.00
740;BME280;354;42.694;23.336;2023-02-01T03:21:09;95355.16;;;1.13;100.00
740;BME280;354;42.694;23.336;2023-02-01T03:23:36;95346.94;;;0.99;100.00
740;BME280;354;42.694;23.336;2023-02-01T03:26:06;95374.84;;;1.05;100.00
740;BME280;354;42.694;23.336;2023-02-01T03:28:33;95370.75;;;1.03;100.00
740;BME280;354;42.694;23.336;2023-02-01T03:31:01;95373.22;;;1.04;100.00
740;BME280;354;42.694;23.336;2023-02-01T03:33:27;95368.09;;;0.95;100.00
740;BME280;354;42.694;23.336;2023-02-01T03:38:56;95366.78;;;0.91;100.00
740;BME280;354;42.694;23.336;2023-02-01T03:41:37;95374.09;;;0.95;100.00
740;BME280;354;42.694;23.336;2023-02-01T03:46:55;95377.34;;;0.97;100.00
740;BME280;354;42.694;23.336;2023-02-01T03:49:29;95368.94;;;0.95;100.00
740;BME280;354;42.694;23.336;2023-02-01T03:51:58;95363.66;;;0.87;100.00
740;BME280;354;42.694;23.336;2023-02-01T03:54:25;95379.66;;;0.83;100.00
740;BME280;354;42.694;23.336;2023-02-01T03:56:54;95369.75;;;0.78;100.00
740;BME280;354;42.694;23.336;2023-02-01T03:59:20;95372.59;;;0.75;100.00
740;BME280;354;42.694;23.336;2023-02-01T04:01:45;95362.78;;;0.78;100.00
740;BME280;354;42.694;23.336;2023-02-01T04:04:11;95374.59;;;0.81;100.00
740;BME280;354;42.694;23.336;2023-02-01T04:06:47;95369.53;;;0.89;100.00
740;BME280;354;42.694;23.336;2023-02-01T04:09:13;95364.13;;;1.00;100.00
740;BME280;354;42.694;23.336;2023-02-01T04:11:38;95366.69;;;1.00;100.00
740;BME280;354;42.694;23.336;2023-02-01T04:14:04;95366.47;;;1.12;100.00
740;BME280;354;42.694;23.336;2023-02-01T04:16:30;95363.94;;;1.20;100.00
740;BME280;354;42.694;23.336;2023-02-01T04:18:57;95365.91;;;1.26;100.00
740;BME280;354;42.694;23.336;2023-02-01T04:21:22;95363.34;;;1.26;100.00
740;BME280;354;42.694;23.336;2023-02-01T04:23:48;95371.84;;;1.36;100.00
740;BME280;354;42.694;23.336;2023-02-01T04:26:13;95378.06;;;1.43;100.00
740;BME280;354;42.694;23.336;2023-02-01T04:28:38;95373.22;;;1.48;100.00
740;BME280;354;42.694;23.336;2023-02-01T04:31:04;95368.34;;;1.45;100.00
740;BME280;354;42.694;23.336;2023-02-01T04:33:29;95368.72;;;1.50;100.00
740;BME280;354;42.694;23.336;2023-02-01T04:35:55;95374.41;;;1.54;100.00
740;BME280;354;42.694;23.336;2023-02-01T04:38:20;95377.03;;;1.62;100.00
740;BME280;354;42.694;23.336;2023-02-01T04:40:49;95363.44;;;1.60;100.00
740;BME280;354;42.694;23.336;2023-02-01T04:43:16;95365.53;;;1.65;100.00
740;BME280;354;42.694;23.336;2023-02-01T04:45:41;95377.59;;;1.74;100.00
740;BME280;354;42.694;23.336;2023-02-01T04:48:07;95367.06;;;1.75;100.00
740;BME280;354;42.694;23.336;2023-02-01T04:50:32;95375.81;;;1.74;100.00
740;BME280;354;42.694;23.336;2023-02-01T04:52:57;95378.56;;;1.73;100.00
740;BME280;354;42.694;23.336;2023-02-01T04:55:23;95372.25;;;1.75;100.00
740;BME280;354;42.694;23.336;2023-02-01T04:57:48;95386.50;;;1.71;100.00
740;BME280;354;42.694;23.336;2023-02-01T05:00:14;95380.19;;;1.74;100.00
740;BME280;354;42.694;23.336;2023-02-01T05:02:39;95377.59;;;1.74;100.00
740;BME280;354;42.694;23.336;2023-02-01T05:05:05;95384.28;;;1.76;100.00
740;BME280;354;42.694;23.336;2023-02-01T05:07:30;95392.41;;;1.81;100.00
740;BME280;354;42.694;23.336;2023-02-01T05:09:56;95393.53;;;1.79;100.00
740;BME280;354;42.694;23.336;2023-02-01T05:12:21;95399.22;;;1.82;100.00
740;BME280;354;42.694;23.336;2023-02-01T05:15:05;95407.13;;;1.81;100.00
740;BME280;354;42.694;23.336;2023-02-01T05:17:31;95400.69;;;1.85;100.00
740;BME280;354;42.694;23.336;2023-02-01T05:19:56;95408.31;;;1.87;100.00
740;BME280;354;42.694;23.336;2023-02-01T05:22:22;95401.00;;;1.82;100.00
740;BME280;354;42.694;23.336;2023-02-01T05:24:47;95382.69;;;1.83;100.00
740;BME280;354;42.694;23.336;2023-02-01T05:27:13;95401.03;;;1.90;100.00
740;BME280;354;42.694;23.336;2023-02-01T05:29:38;95395.84;;;1.90;100.00
740;BME280;354;42.694;23.336;2023-02-01T05:32:03;95406.56;;;1.87;100.00
740;BME280;354;42.694;23.336;2023-02-01T05:34:29;95409.19;;;1.95;100.00
740;BME280;354;42.694;23.336;2023-02-01T05:36:54;95405.22;;;1.83;100.00
740;BME280;354;42.694;23.336;2023-02-01T05:39:20;95402.38;;;1.94;100.00
740;BME280;354;42.694;23.336;2023-02-01T05:41:45;95401.09;;;1.98;100.00
740;BME280;354;42.694;23.336;2023-02-01T05:44:11;95400.44;;;1.96;100.00
740;BME280;354;42.694;23.336;2023-02-01T05:46:37;95400.50;;;2.13;100.00
740;BME280;354;42.694;23.336;2023-02-01T05:49:04;95405.75;;;2.21;100.00
740;BME280;354;42.694;23.336;2023-02-01T05:51:29;95395.16;;;2.14;100.00
740;BME280;354;42.694;23.336;2023-02-01T05:53:54;95395.72;;;2.26;100.00
740;BME280;354;42.694;23.336;2023-02-01T05:56:20;95398.47;;;2.24;100.00
740;BME280;354;42.694;23.336;2023-02-01T05:58:45;95404.81;;;2.30;100.00
740;BME280;354;42.694;23.336;2023-02-01T06:01:11;95406.13;;;2.34;100.00
740;BME280;354;42.694;23.336;2023-02-01T06:03:36;95393.06;;;2.18;100.00
740;BME280;354;42.694;23.336;2023-02-01T06:06:02;95415.06;;;2.40;100.00
740;BME280;354;42.694;23.336;2023-02-01T06:08:27;95410.41;;;2.43;100.00
740;BME280;354;42.694;23.336;2023-02-01T06:11:00;95420.63;;;2.45;100.00
740;BME280;354;42.694;23.336;2023-02-01T06:13:26;95412.81;;;2.36;100.00
740;BME280;354;42.694;23.336;2023-02-01T06:15:52;95410.69;;;2.40;100.00
740;BME280;354;42.694;23.336;2023-02-01T06:18:17;95408.91;;;2.41;100.00
740;BME280;354;42.694;23.336;2023-02-01T06:20:43;95413.47;;;2.47;100.00
740;BME280;354;42.694;23.336;2023-02-01T06:23:08;95408.97;;;2.49;100.00
740;BME280;354;42.694;23.336;2023-02-01T06:25:34;95409.78;;;2.49;100.00
740;BME280;354;42.694;23.336;2023-02-01T06:28:02;95417.09;;;2.54;100.00
740;BME280;354;42.694;23.336;2023-02-01T06:30:30;95416.94;;;2.63;100.00
740;BME280;354;42.694;23.336;2023-02-01T06:32:56;95413.22;;;2.66;100.00
740;BME280;354;42.694;23.336;2023-02-01T06:35:21;95418.16;;;2.85;100.00
740;BME280;354;42.694;23.336;2023-02-01T06:37:47;95413.59;;;2.79;100.00
740;BME280;354;42.694;23.336;2023-02-01T06:40:12;95400.59;;;2.71;100.00
740;BME280;354;42.694;23.336;2023-02-01T06:42:38;95423.53;;;2.92;100.00
740;BME280;354;42.694;23.336;2023-02-01T06:45:04;95426.94;;;3.01;100.00
740;BME280;354;42.694;23.336;2023-02-01T06:47:31;95427.09;;;2.91;100.00
740;BME280;354;42.694;23.336;2023-02-01T06:49:57;95432.63;;;2.96;100.00
740;BME280;354;42.694;23.336;2023-02-01T06:52:22;95439.16;;;3.08;100.00
740;BME280;354;42.694;23.336;2023-02-01T06:54:47;95445.66;;;3.12;100.00
740;BME280;354;42.694;23.336;2023-02-01T06:57:14;95452.16;;;3.08;100.00
740;BME280;354;42.694;23.336;2023-02-01T06:59:39;95444.03;;;3.11;100.00
740;BME280;354;42.694;23.336;2023-02-01T07:02:05;95448.09;;;3.22;100.00
740;BME280;354;42.694;23.336;2023-02-01T07:04:30;95451.22;;;3.26;100.00
740;BME280;354;42.694;23.336;2023-02-01T07:06:55;95452.19;;;3.33;100.00
740;BME280;354;42.694;23.336;2023-02-01T07:09:21;95464.53;;;3.39;100.00
740;BME280;354;42.694;23.336;2023-02-01T07:11:46;95456.44;;;3.50;100.00
740;BME280;354;42.694;23.336;2023-02-01T07:14:12;95457.75;;;3.54;100.00
740;BME280;354;42.694;23.336;2023-02-01T07:16:38;95468.13;;;3.62;100.00
740;BME280;354;42.694;23.336;2023-02-01T07:19:03;95480.00;;;3.65;100.00
740;BME280;354;42.694;23.336;2023-02-01T07:21:29;95451.22;;;3.42;100.00
740;BME280;354;42.694;23.336;2023-02-01T07:23:55;95481.31;;;3.61;100.00
740;BME280;354;42.694;23.336;2023-02-01T07:26:20;95482.44;;;3.66;100.00
740;BME280;354;42.694;23.336;2023-02-01T07:28:46;95482.13;;;3.78;100.00
740;BME280;354;42.694;23.336;2023-02-01T07:31:17;95486.66;;;3.84;100.00
740;BME280;354;42.694;23.336;2023-02-01T07:33:47;95489.47;;;3.90;100.00
740;BME280;354;42.694;23.336;2023-02-01T07:36:15;95486.38;;;3.87;100.00
740;BME280;354;42.694;23.336;2023-02-01T07:38:41;95498.06;;;4.07;100.00
740;BME280;354;42.694;23.336;2023-02-01T07:41:06;95486.31;;;4.11;100.00
740;BME280;354;42.694;23.336;2023-02-01T07:43:33;95486.84;;;4.07;100.00
740;BME280;354;42.694;23.336;2023-02-01T07:45:59;95488.59;;;4.22;100.00
740;BME280;354;42.694;23.336;2023-02-01T07:48:25;95492.16;;;4.38;100.00
740;BME280;354;42.694;23.336;2023-02-01T07:51:01;95502.59;;;4.21;100.00
740;BME280;354;42.694;23.336;2023-02-01T07:53:29;95494.28;;;4.34;100.00
740;BME280;354;42.694;23.336;2023-02-01T07:55:55;95503.38;;;4.46;100.00
740;BME280;354;42.694;23.336;2023-02-01T07:58:22;95506.81;;;4.31;100.00
740;BME280;354;42.694;23.336;2023-02-01T08:00:47;95511.50;;;4.43;100.00
740;BME280;354;42.694;23.336;2023-02-01T08:03:31;95527.44;;;4.48;100.00
740;BME280;354;42.694;23.336;2023-02-01T08:05:56;95507.47;;;4.41;100.00
740;BME280;354;42.694;23.336;2023-02-01T08:08:22;95517.38;;;4.45;100.00
740;BME280;354;42.694;23.336;2023-02-01T08:10:48;95528.13;;;4.42;100.00
740;BME280;354;42.694;23.336;2023-02-01T08:13:14;95511.00;;;4.56;100.00
740;BME280;354;42.694;23.336;2023-02-01T08:15:39;95514.44;;;4.48;100.00
740;BME280;354;42.694;23.336;2023-02-01T08:18:05;95503.78;;;4.66;100.00
740;BME280;354;42.694;23.336;2023-02-01T08:20:30;95509.00;;;4.74;100.00
740;BME280;354;42.694;23.336;2023-02-01T08:22:56;95504.47;;;4.60;99.75
740;BME280;354;42.694;23.336;2023-02-01T08:25:22;95513.31;;;4.51;100.00
740;BME280;354;42.694;23.336;2023-02-01T08:27:48;95505.22;;;4.77;100.00
740;BME280;354;42.694;23.336;2023-02-01T08:30:14;95506.88;;;4.78;99.03
740;BME280;354;42.694;23.336;2023-02-01T08:32:39;95513.50;;;4.89;99.11
740;BME280;354;42.694;23.336;2023-02-01T08:35:05;95511.94;;;5.11;96.85
740;BME280;354;42.694;23.336;2023-02-01T08:37:31;95519.81;;;5.02;95.31
740;BME280;354;42.694;23.336;2023-02-01T08:39:57;95510.59;;;5.23;95.95
740;BME280;354;42.694;23.336;2023-02-01T08:42:22;95516.81;;;5.14;92.90
740;BME280;354;42.694;23.336;2023-02-01T08:45:07;95503.34;;;5.02;94.28
740;BME280;354;42.694;23.336;2023-02-01T08:47:33;95505.59;;;5.13;94.76
740;BME280;354;42.694;23.336;2023-02-01T08:49:59;95499.13;;;5.32;92.20
740;BME280;354;42.694;23.336;2023-02-01T08:52:24;95494.78;;;5.16;92.04
740;BME280;354;42.694;23.336;2023-02-01T08:54:50;95499.75;;;5.03;91.19
740;BME280;354;42.694;23.336;2023-02-01T08:57:15;95489.94;;;5.13;91.12
740;BME280;354;42.694;23.336;2023-02-01T08:59:41;95473.78;;;5.18;90.79
740;BME280;354;42.694;23.336;2023-02-01T09:02:12;95491.56;;;5.14;90.40
740;BME280;354;42.694;23.336;2023-02-01T09:04:37;95499.34;;;5.22;89.83
740;BME280;354;42.694;23.336;2023-02-01T09:07:03;95503.13;;;5.43;90.43
740;BME280;354;42.694;23.336;2023-02-01T09:09:28;95506.22;;;5.69;88.44
740;BME280;354;42.694;23.336;2023-02-01T09:11:54;95511.16;;;5.64;87.01
740;BME280;354;42.694;23.336;2023-02-01T09:14:19;95516.69;;;5.38;86.27
740;BME280;354;42.694;23.336;2023-02-01T09:16:44;95505.91;;;5.41;87.20
740;BME280;354;42.694;23.336;2023-02-01T09:19:10;95512.84;;;5.57;86.42
740;BME280;354;42.694;23.336;2023-02-01T09:21:36;95522.44;;;5.34;85.90
740;BME280;354;42.694;23.336;2023-02-01T09:24:01;95514.34;;;5.20;87.06
740;BME280;354;42.694;23.336;2023-02-01T09:26:27;95512.94;;;5.41;87.06
740;BME280;354;42.694;23.336;2023-02-01T09:28:53;95483.25;;;5.11;85.88
740;BME280;354;42.694;23.336;2023-02-01T09:31:18;95505.03;;;4.87;87.78
740;BME280;354;42.694;23.336;2023-02-01T09:33:44;95507.88;;;5.08;90.19
740;BME280;354;42.694;23.336;2023-02-01T09:36:09;95499.28;;;4.99;89.87
740;BME280;354;42.694;23.336;2023-02-01T09:38:35;95499.00;;;4.86;88.94
740;BME280;354;42.694;23.336;2023-02-01T09:41:00;95493.00;;;4.78;90.26
740;BME280;354;42.694;23.336;2023-02-01T09:43:42;95497.28;;;4.70;91.49
740;BME280;354;42.694;23.336;2023-02-01T09:48:47;95484.88;;;4.81;90.95
740;BME280;354;42.694;23.336;2023-02-01T09:51:21;95477.53;;;4.84;91.26
740;BME280;354;42.694;23.336;2023-02-01T09:54:17;95468.13;;;4.75;89.22
740;BME280;354;42.694;23.336;2023-02-01T09:56:52;95466.38;;;4.59;89.49
740;BME280;354;42.694;23.336;2023-02-01T09:59:44;95459.88;;;4.55;89.71
740;BME280;354;42.694;23.336;2023-02-01T10:02:21;95449.13;;;4.50;90.64
740;BME280;354;42.694;23.336;2023-02-01T10:04:48;95453.41;;;4.43;91.88
740;BME280;354;42.694;23.336;2023-02-01T10:07:38;95456.69;;;4.37;91.57
740;BME280;354;42.694;23.336;2023-02-01T10:13:14;95445.28;;;4.46;91.66
740;BME280;354;42.694;23.336;2023-02-01T10:21:16;95443.53;;;4.69;89.25
740;BME280;354;42.694;23.336;2023-02-01T10:26:23;95433.06;;;4.86;88.08
740;BME280;354;42.694;23.336;2023-02-01T10:28:51;95433.16;;;5.00;88.27
740;BME280;354;42.694;23.336;2023-02-01T10:31:18;95434.09;;;4.99;87.03
740;BME280;354;42.694;23.336;2023-02-01T10:33:50;95417.16;;;5.03;87.60
740;BME280;354;42.694;23.336;2023-02-01T10:36:19;95423.13;;;5.12;85.82
740;BME280;354;42.694;23.336;2023-02-01T10:38:46;95405.50;;;5.14;85.02
740;BME280;354;42.694;23.336;2023-02-01T10:41:15;95415.09;;;5.45;85.36
740;BME280;354;42.694;23.336;2023-02-01T10:43:43;95426.22;;;5.62;83.81
740;BME280;354;42.694;23.336;2023-02-01T10:46:10;95402.75;;;5.62;82.46
740;BME280;354;42.694;23.336;2023-02-01T10:48:37;95413.59;;;5.88;82.26
740;BME280;354;42.694;23.336;2023-02-01T10:51:12;95397.28;;;5.86;80.73
740;BME280;354;42.694;23.336;2023-02-01T10:53:57;95405.25;;;5.93;80.92
740;BME280;354;42.694;23.336;2023-02-01T10:56:24;95403.41;;;6.16;80.21
740;BME280;354;42.694;23.336;2023-02-01T10:58:51;95402.88;;;6.50;79.41
740;BME280;354;42.694;23.336;2023-02-01T11:01:25;95408.53;;;6.39;77.75
740;BME280;354;42.694;23.336;2023-02-01T11:04:01;95405.91;;;6.24;77.65
740;BME280;354;42.694;23.336;2023-02-01T11:06:33;95382.88;;;6.28;77.07
740;BME280;354;42.694;23.336;2023-02-01T11:11:30;95402.59;;;6.16;76.89
740;BME280;354;42.694;23.336;2023-02-01T11:13:59;95406.47;;;6.05;77.39
740;BME280;354;42.694;23.336;2023-02-01T11:16:37;95397.88;;;5.96;77.60
740;BME280;354;42.694;23.336;2023-02-01T11:19:04;95416.34;;;5.72;76.88
740;BME280;354;42.694;23.336;2023-02-01T11:21:29;95406.16;;;5.62;76.20
740;BME280;354;42.694;23.336;2023-02-01T11:24:00;95404.53;;;5.61;77.80
740;BME280;354;42.694;23.336;2023-02-01T11:26:27;95399.72;;;5.88;77.94
740;BME280;354;42.694;23.336;2023-02-01T11:29:04;95382.41;;;5.95;77.28
740;BME280;354;42.694;23.336;2023-02-01T11:31:34;95376.50;;;5.78;77.25
740;BME280;354;42.694;23.336;2023-02-01T11:34:07;95361.00;;;5.76;77.79
740;BME280;354;42.694;23.336;2023-02-01T11:36:35;95377.75;;;6.05;77.24
740;BME280;354;42.694;23.336;2023-02-01T11:42:03;95381.69;;;6.30;75.65
740;BME280;354;42.694;23.336;2023-02-01T11:44:34;95372.06;;;6.16;76.58
740;BME280;354;42.694;23.336;2023-02-01T11:47:23;95375.03;;;6.13;76.31
740;BME280;354;42.694;23.336;2023-02-01T11:49:51;95353.59;;;6.18;77.57
740;BME280;354;42.694;23.336;2023-02-01T11:55:36;95358.09;;;6.09;76.77
740;BME280;354;42.694;23.336;2023-02-01T12:20:02;95344.31;;;6.15;76.96
740;BME280;354;42.694;23.336;2023-02-01T12:25:29;95348.25;;;6.26;78.33
740;BME280;354;42.694;23.336;2023-02-01T12:28:14;95346.84;;;6.23;77.85
740;BME280;354;42.694;23.336;2023-02-01T12:34:17;95345.31;;;6.14;77.78
740;BME280;354;42.694;23.336;2023-02-01T12:37:17;95347.19;;;6.20;76.50
740;BME280;354;42.694;23.336;2023-02-01T12:42:32;95351.53;;;6.28;77.13
740;BME280;354;42.694;23.336;2023-02-01T12:45:14;95347.25;;;6.42;75.21
740;BME280;354;42.694;23.336;2023-02-01T12:48:42;95342.56;;;6.52;76.37
740;BME280;354;42.694;23.336;2023-02-01T12:50:47;95346.50;;;6.63;74.06
740;BME280;354;42.694;23.336;2023-02-01T12:53:21;95353.16;;;6.80;73.94
740;BME280;354;42.694;23.336;2023-02-01T12:55:57;95348.06;;;6.93;73.33
740;BME280;354;42.694;23.336;2023-02-01T12:58:42;95352.13;;;6.96;71.86
740;BME280;354;42.694;23.336;2023-02-01T13:01:20;95351.06;;;6.75;71.52
740;BME280;354;42.694;23.336;2023-02-01T13:03:55;95348.50;;;6.60;71.87
740;BME280;354;42.694;23.336;2023-02-01T13:06:51;95345.84;;;6.54;72.91
740;BME280;354;42.694;23.336;2023-02-01T13:09:44;95341.47;;;6.61;72.99
740;BME280;354;42.694;23.336;2023-02-01T13:12:15;95334.72;;;6.52;72.71
740;BME280;354;42.694;23.336;2023-02-01T13:14:49;95342.56;;;6.52;72.07
740;BME280;354;42.694;23.336;2023-02-01T13:17:27;95346.00;;;6.52;72.79
740;BME280;354;42.694;23.336;2023-02-01T13:22:38;95318.38;;;6.28;71.80
740;BME280;354;42.694;23.336;2023-02-01T13:25:29;95348.53;;;6.31;71.89
740;BME280;354;42.694;23.336;2023-02-01T13:28:03;95333.06;;;6.29;72.32
740;BME280;354;42.694;23.336;2023-02-01T13:41:27;95344.56;;;6.20;71.78
740;BME280;354;42.694;23.336;2023-02-01T13:43:58;95338.94;;;6.17;71.93
740;BME280;354;42.694;23.336;2023-02-01T13:46:24;95348.00;;;6.36;71.24
740;BME280;354;42.694;23.336;2023-02-01T13:48:55;95340.06;;;6.44;72.00
740;BME280;354;42.694;23.336;2023-02-01T13:51:43;95338.97;;;6.53;71.08
740;BME280;354;42.694;23.336;2023-02-01T13:54:43;95338.00;;;6.75;70.85
740;BME280;354;42.694;23.336;2023-02-01T13:57:38;95342.41;;;6.90;69.92
740;BME280;354;42.694;23.336;2023-02-01T14:03:14;95345.91;;;7.18;69.52
740;BME280;354;42.694;23.336;2023-02-01T14:13:25;95340.75;;;7.03;68.55
740;BME280;354;42.694;23.336;2023-02-01T14:18:56;95328.94;;;7.14;68.38
740;BME280;354;42.694;23.336;2023-02-01T14:21:29;95328.94;;;7.14;68.16
740;BME280;354;42.694;23.336;2023-02-01T14:24:16;95325.91;;;7.32;68.93
740;BME280;354;42.694;23.336;2023-02-01T14:26:47;95319.38;;;7.21;68.22
740;BME280;354;42.694;23.336;2023-02-01T14:36:58;95323.97;;;6.76;70.46
740;BME280;354;42.694;23.336;2023-02-01T14:39:30;95322.63;;;6.66;70.59
740;BME280;354;42.694;23.336;2023-02-01T14:42:01;95309.78;;;6.49;71.43
740;BME280;354;42.694;23.336;2023-02-01T14:44:31;95330.97;;;6.54;71.59
740;BME280;354;42.694;23.336;2023-02-01T15:01:34;95345.84;;;6.24;72.35
740;BME280;354;42.694;23.336;2023-02-01T15:04:06;95346.50;;;6.26;72.82
740;BME280;354;42.694;23.336;2023-02-01T15:06:52;95332.50;;;6.19;73.07
740;BME280;354;42.694;23.336;2023-02-01T15:09:35;95340.88;;;6.29;73.24
740;BME280;354;42.694;23.336;2023-02-01T15:14:40;95343.78;;;6.20;73.75
740;BME280;354;42.694;23.336;2023-02-01T15:19:57;95333.69;;;6.17;75.16
740;BME280;354;42.694;23.336;2023-02-01T15:22:24;95336.38;;;6.08;75.46
740;BME280;354;42.694;23.336;2023-02-01T15:24:54;95327.47;;;6.03;75.39
740;BME280;354;42.694;23.336;2023-02-01T15:27:20;95326.25;;;5.99;76.37
740;BME280;354;42.694;23.336;2023-02-01T15:29:45;95322.50;;;5.93;75.68
740;BME280;354;42.694;23.336;2023-02-01T15:32:31;95323.22;;;5.87;75.93
740;BME280;354;42.694;23.336;2023-02-01T15:34:58;95316.34;;;5.71;75.89
740;BME280;354;42.694;23.336;2023-02-01T15:37:24;95308.28;;;5.66;76.50
740;BME280;354;42.694;23.336;2023-02-01T15:40:14;95317.44;;;5.62;76.21
740;BME280;354;42.694;23.336;2023-02-01T15:42:55;95320.09;;;5.54;77.55
740;BME280;354;42.694;23.336;2023-02-01T15:45:24;95308.19;;;5.37;78.67
740;BME280;354;42.694;23.336;2023-02-01T15:47:52;95325.75;;;5.43;78.13
740;BME280;354;42.694;23.336;2023-02-01T15:50:20;95324.75;;;5.44;77.58
740;BME280;354;42.694;23.336;2023-02-01T15:52:51;95323.94;;;5.43;78.16
740;BME280;354;42.694;23.336;2023-02-01T15:57:45;95329.72;;;5.39;77.87
740;BME280;354;42.694;23.336;2023-02-01T16:00:43;95319.63;;;5.36;77.76
740;BME280;354;42.694;23.336;2023-02-01T16:05:56;95329.97;;;5.29;77.64
740;BME280;354;42.694;23.336;2023-02-01T16:08:24;95335.81;;;5.31;76.81
740;BME280;354;42.694;23.336;2023-02-01T16:10:52;95341.50;;;5.35;76.67
740;BME280;354;42.694;23.336;2023-02-01T16:13:19;95342.63;;;5.32;76.72
740;BME280;354;42.694;23.336;2023-02-01T16:15:46;95350.34;;;5.25;76.89
740;BME280;354;42.694;23.336;2023-02-01T16:18:12;95354.25;;;5.29;77.02
740;BME280;354;42.694;23.336;2023-02-01T16:20:39;95354.41;;;5.28;76.78
740;BME280;354;42.694;23.336;2023-02-01T16:23:06;95359.94;;;5.33;77.30